Time;durP1;ratioP1;P1;durP2;ratioP2;P2;SDS_P1;SDS_P2;PMS_P1;PMS_P2;Temp;Humidity;BMP_temperature;BMP_pressure;BME280_temperature;BME280_humidity;BME280_pressure;Samples;Min_cycle;Max_cycle;Signal;HPM_P1;HPM_P2
2022/09/08 06:18:15;;;;;;;;;;;;;;;19.66;71.78;97878.66;5152997;27;20377;-71
2022/09/08 06:20:43;;;;;;;;;;;;;;;19.78;71.00;97879.19;4759938;28;159631;-70
2022/09/08 06:23:11;;;;;;;;;;;;;;;19.82;70.79;97883.25;4995151;28;20268;-70
2022/09/08 06:25:40;;;;;;;;;;;;;;;19.88;70.87;97880.78;5104087;28;19924;-73
2022/09/08 06:28:12;;;;;;;;;;;;;;;20.19;69.65;97878.44;5103746;28;20302;-74
2022/09/08 06:31:59;;;;;;;;;;;;;;;20.49;69.31;97880.53;5085678;27;2495017;-70
2022/09/08 06:34:28;;;;;;;;;;;;;;;20.33;69.23;97869.78;5152415;27;20053;-76
2022/09/08 06:48:16;;;;;;;;;;;;;;;21.43;64.96;97863.03;5138200;27;20394;-74
2022/09/08 06:50:50;;;;;;;;;;;;;;;20.68;67.46;97864.19;5145828;27;19928;-74
2022/09/08 06:53:23;;;;;;;;;;;;;;;20.48;68.15;97847.59;5122508;27;20298;-74
2022/09/08 06:56:58;;;;;;;;;;;;;;;13.74;75.28;97904.19;5061201;28;20307;-65
2022/09/08 06:59:33;;;;;;;;;;;;;;;13.25;78.70;97901.03;5044707;28;20444;-60
2022/09/08 07:02:09;;;;;;;;;;;;;;;13.12;80.13;97902.09;5048663;28;20318;-65
2022/09/08 07:04:43;;;;;;;;;;;;;;;13.08;81.62;97905.94;5052506;28;19978;-67
2022/09/08 07:07:14;;;;;;;;;;;;;;;13.31;80.01;97897.09;5047960;28;19924;-65
2022/09/08 07:09:43;;;;;;;;;;;;;;;13.27;80.83;97893.00;5053135;28;19978;-65
2022/09/08 07:12:28;;;;;;;;;;;;;;;13.32;80.41;97888.19;5051039;28;20336;-59
2022/09/08 07:15:04;;;;;;;;;;;;;;;13.30;83.94;97892.78;5056626;28;20050;-66
2022/09/08 07:17:34;;;;;;;;;;;;;;;13.48;81.16;97886.88;5058118;28;19929;-60
2022/09/08 07:20:04;;;;;;;;;;;;;;;13.26;81.88;97886.88;5061127;28;19947;-67
2022/09/08 07:22:37;;;;;;;;;;;;;;;13.73;82.37;97881.34;5024638;28;20327;-67
2022/09/08 07:25:25;;;;;;;;;;;;;;;13.66;80.63;97887.28;5038875;28;20019;-60
2022/09/08 07:27:58;;;;;;;;;;;;;;;13.81;81.68;97880.75;5039044;28;19937;-66
2022/09/08 07:30:25;;;;;;;;;;;;;;;14.08;83.81;97875.91;5042462;28;20399;-59
2022/09/08 07:32:54;;;;;;;;;;;;;;;14.45;82.90;97875.47;5044691;28;19925;-64
2022/09/08 07:35:28;;;;;;;;;;;;;;;14.36;80.17;97870.91;5047022;28;20399;-66
2022/09/08 07:37:57;;;;;;;;;;;;;;;14.22;79.50;97881.78;5043081;28;19925;-61
2022/09/08 07:40:36;;;;;;;;;;;;;;;14.40;80.92;97877.63;5046341;28;20280;-66
2022/09/08 07:43:10;;;;;;;;;;;;;;;14.24;80.46;97874.56;5045340;28;19939;-65
2022/09/08 07:45:41;;;;;;;;;;;;;;;14.41;81.38;97876.69;5042619;28;19952;-65
2022/09/08 07:48:12;;;;;;;;;;;;;;;14.65;81.26;97876.44;5043744;28;20447;-63
2022/09/08 07:50:56;;;;;;;;;;;;;;;14.80;80.62;97871.69;5046392;28;19959;-59
2022/09/08 07:53:30;;;;;;;;;;;;;;;14.79;79.95;97870.84;5046914;28;20449;-60
2022/09/08 07:56:03;;;;;;;;;;;;;;;14.92;80.48;97874.16;5060777;28;20031;-67
2022/09/08 07:58:37;;;;;;;;;;;;;;;15.07;79.95;97869.38;5063163;28;19970;-67
2022/09/08 08:01:10;;;;;;;;;;;;;;;15.28;81.12;97875.53;5039857;28;19939;-67
2022/09/08 08:03:43;;;;;;;;;;;;;;;15.44;80.80;97868.78;5059711;28;19940;-65
2022/09/08 08:06:13;;;;;;;;;;;;;;;15.45;80.65;97873.09;5060149;28;19925;-66
2022/09/08 08:08:48;;;;;;;;;;;;;;;15.54;81.21;97866.16;5050138;28;20372;-67
2022/09/08 08:11:19;;;;;;;;;;;;;;;15.69;79.77;97857.72;5048995;28;19960;-65
2022/09/08 08:13:53;;;;;;;;;;;;;;;15.62;80.03;97867.19;5046544;28;20363;-64
2022/09/08 08:16:26;;;;;;;;;;;;;;;15.88;78.67;97859.59;5040869;28;19932;-60
2022/09/08 08:18:57;;;;;;;;;;;;;;;15.88;78.82;97859.59;5046365;28;20047;-72
2022/09/08 08:21:26;;;;;;;;;;;;;;;15.98;79.26;97865.78;5049849;28;19924;-65
2022/09/08 08:24:02;;;;;;;;;;;;;;;16.06;79.99;97855.34;5048024;28;19926;-59
2022/09/08 08:26:34;;;;;;;;;;;;;;;16.19;79.88;97855.94;5035629;28;20058;-68
2022/09/08 08:29:11;;;;;;;;;;;;;;;16.38;80.37;97846.16;5054646;28;19937;-70
2022/09/08 08:31:42;;;;;;;;;;;;;;;16.40;79.27;97841.56;5052384;28;19939;-72
2022/09/08 08:34:14;;;;;;;;;;;;;;;16.53;78.96;97842.13;5055311;28;20021;-71
2022/09/08 08:36:45;;;;;;;;;;;;;;;16.67;77.47;97848.84;5035219;28;19979;-60
2022/09/08 08:39:15;;;;;;;;;;;;;;;16.59;78.84;97840.75;5053843;28;19933;-65
2022/09/08 08:41:51;;;;;;;;;;;;;;;16.92;78.77;97835.81;5030705;28;19956;-67
2022/09/08 08:44:25;;;;;;;;;;;;;;;17.02;78.77;97834.00;5037427;28;20275;-65
2022/09/08 08:47:09;;;;;;;;;;;;;;;17.04;78.88;97825.88;5032075;28;20846;-66
2022/09/08 08:49:55;;;;;;;;;;;;;;;17.18;79.80;97822.78;5033596;28;19970;-65
2022/09/08 08:52:29;;;;;;;;;;;;;;;17.26;78.28;97822.91;5052551;28;19933;-65
2022/09/08 08:55:05;;;;;;;;;;;;;;;17.27;78.29;97814.78;5048288;28;19994;-61
2022/09/08 08:57:50;;;;;;;;;;;;;;;17.40;77.90;97814.44;5051410;28;19928;-63
2022/09/08 09:00:22;;;;;;;;;;;;;;;17.40;79.94;97809.13;5052111;28;19925;-61
2022/09/08 09:03:11;;;;;;;;;;;;;;;17.47;78.91;97808.38;5057351;28;19970;-62
2022/09/08 09:05:49;;;;;;;;;;;;;;;17.56;77.28;97812.81;5042305;28;19925;-63
2022/09/08 09:08:37;;;;;;;;;;;;;;;17.41;77.13;97808.16;5049385;28;20654;-64
2022/09/08 09:11:18;;;;;;;;;;;;;;;17.40;77.45;97799.31;5031833;28;20036;-63
2022/09/08 09:14:04;;;;;;;;;;;;;;;17.45;78.14;97801.53;5048748;28;19935;-64
2022/09/08 09:16:50;;;;;;;;;;;;;;;17.74;76.92;97797.75;4987354;28;19925;-64
2022/09/08 09:19:28;;;;;;;;;;;;;;;17.62;76.16;97796.28;4988369;28;20020;-64
2022/09/08 09:21:58;;;;;;;;;;;;;;;17.77;78.30;97804.63;5004756;28;19930;-63
2022/09/08 09:24:37;;;;;;;;;;;;;;;17.72;77.65;97795.41;4989057;28;19940;-63
2022/09/08 09:27:12;;;;;;;;;;;;;;;17.93;78.00;97802.16;5003537;28;19925;-63
2022/09/08 09:29:41;;;;;;;;;;;;;;;18.06;77.64;97794.63;4988595;28;19929;-63
2022/09/08 09:32:22;;;;;;;;;;;;;;;18.01;78.25;97802.25;5005255;28;20420;-62
2022/09/08 09:34:58;;;;;;;;;;;;;;;18.24;77.99;97798.16;5004859;28;19984;-62
2022/09/08 09:37:34;;;;;;;;;;;;;;;18.11;76.77;97789.72;5005344;28;20387;-62
2022/09/08 09:40:18;;;;;;;;;;;;;;;18.32;75.98;97790.22;4987695;28;19925;-62
2022/09/08 09:43:07;;;;;;;;;;;;;;;18.29;76.38;97790.56;5004728;28;19956;-61
2022/09/08 09:45:53;;;;;;;;;;;;;;;18.36;76.20;97778.31;4977275;28;19933;-62
2022/09/08 09:48:43;;;;;;;;;;;;;;;18.58;78.01;97791.16;4961232;28;19940;-62
2022/09/08 09:51:20;;;;;;;;;;;;;;;18.28;78.25;97791.53;4985682;28;20008;-61
2022/09/08 09:54:02;;;;;;;;;;;;;;;18.59;77.18;97781.31;5023493;28;19968;-61
2022/09/08 09:56:43;;;;;;;;;;;;;;;18.67;76.67;97776.94;5034010;28;19925;-61
2022/09/08 09:59:35;;;;;;;;;;;;;;;18.79;77.14;97786.34;5038480;28;20015;-61
2022/09/08 10:02:18;;;;;;;;;;;;;;;18.63;75.68;97778.25;5023039;28;20390;-61
2022/09/08 10:05:01;;;;;;;;;;;;;;;18.89;77.17;97768.44;5023565;28;19933;-62
2022/09/08 10:07:52;;;;;;;;;;;;;;;19.03;76.01;97770.53;5022616;28;19947;-62
2022/09/08 10:10:28;;;;;;;;;;;;;;;18.94;76.59;97760.78;5024794;28;19930;-61
2022/09/08 10:13:08;;;;;;;;;;;;;;;19.03;75.79;97767.03;5023231;28;19925;-63
2022/09/08 10:16:06;;;;;;;;;;;;;;;19.01;76.22;97764.50;5026089;28;19988;-60
2022/09/08 10:18:48;;;;;;;;;;;;;;;19.21;75.58;97760.66;5024034;28;20014;-61
2022/09/08 10:21:43;;;;;;;;;;;;;;;19.33;76.91;97756.69;5020623;28;19930;-61
2022/09/08 10:24:34;;;;;;;;;;;;;;;19.17;75.09;97756.63;5021838;28;19925;-61
2022/09/08 10:27:17;;;;;;;;;;;;;;;19.39;75.25;97756.06;5019248;28;20047;-61
2022/09/08 10:30:03;;;;;;;;;;;;;;;19.26;75.37;97754.81;5022043;28;19972;-62
2022/09/08 10:32:45;;;;;;;;;;;;;;;19.37;74.56;97754.53;5023799;28;19925;-60
2022/09/08 10:35:28;;;;;;;;;;;;;;;19.59;77.44;97756.66;5024364;28;20043;-62
2022/09/08 10:38:14;;;;;;;;;;;;;;;19.79;74.77;97737.53;5023528;28;20376;-61
2022/09/08 10:40:47;;;;;;;;;;;;;;;19.70;76.29;97743.88;5022148;28;20377;-64
2022/09/08 10:43:29;;;;;;;;;;;;;;;19.83;75.56;97749.56;5041396;28;20002;-60
2022/09/08 10:46:04;;;;;;;;;;;;;;;19.66;78.45;97739.84;5022644;28;19929;-61
2022/09/08 10:48:41;;;;;;;;;;;;;;;19.85;76.63;97736.91;5025052;28;19964;-61
2022/09/08 10:51:29;;;;;;;;;;;;;;;19.85;75.69;97731.56;5025772;28;19987;-62
2022/09/08 10:54:05;;;;;;;;;;;;;;;19.81;75.29;97730.22;5032502;28;20646;-61
2022/09/08 10:56:33;;;;;;;;;;;;;;;19.80;75.04;97725.88;5040377;28;19933;-60
2022/09/08 10:59:08;;;;;;;;;;;;;;;20.14;76.07;97731.97;5028871;28;19948;-60
2022/09/08 11:01:57;;;;;;;;;;;;;;;20.02;74.15;97733.28;5031280;28;19933;-63
2022/09/08 11:04:43;;;;;;;;;;;;;;;19.92;74.33;97719.22;5037402;28;19925;-62
2022/09/08 11:07:20;;;;;;;;;;;;;;;20.01;74.04;97720.09;5029784;28;19925;-60
2022/09/08 11:09:54;;;;;;;;;;;;;;;19.92;75.36;97716.56;5023600;28;19932;-61
2022/09/08 11:12:32;;;;;;;;;;;;;;;20.13;74.23;97713.41;5036447;28;19939;-60
2022/09/08 11:15:18;;;;;;;;;;;;;;;20.19;73.93;97716.28;5035353;28;19933;-67
2022/09/08 11:17:49;;;;;;;;;;;;;;;20.40;74.77;97710.44;5042183;28;19928;-61
2022/09/08 11:20:21;;;;;;;;;;;;;;;20.65;72.97;97712.97;5039787;28;20411;-65
2022/09/08 11:23:04;;;;;;;;;;;;;;;20.77;73.56;97715.28;5037566;28;19924;-61
2022/09/08 11:25:43;;;;;;;;;;;;;;;20.78;73.34;97717.78;5026261;28;20407;-60
2022/09/08 11:28:19;;;;;;;;;;;;;;;20.85;73.66;97701.91;5029993;28;19925;-59
2022/09/08 11:30:53;;;;;;;;;;;;;;;20.69;74.05;97708.94;5030435;28;19933;-61
2022/09/08 11:33:34;;;;;;;;;;;;;;;20.72;72.61;97705.09;5024487;28;19933;-59
2022/09/08 11:36:07;;;;;;;;;;;;;;;20.62;73.05;97697.25;5024673;28;20023;-61
2022/09/08 11:38:53;;;;;;;;;;;;;;;20.60;73.17;97701.91;5017148;28;19979;-58
2022/09/08 11:41:26;;;;;;;;;;;;;;;20.51;73.13;97697.59;5026296;28;19987;-58
2022/09/08 11:44:04;;;;;;;;;;;;;;;20.60;72.97;97693.91;5029362;28;19924;-59
2022/09/08 11:46:46;;;;;;;;;;;;;;;20.81;74.04;97689.88;5038168;28;20020;-58
2022/09/08 11:49:28;;;;;;;;;;;;;;;20.67;73.92;97689.56;5026949;28;20296;-60
2022/09/08 11:52:07;;;;;;;;;;;;;;;20.48;72.56;97684.56;5030974;28;19971;-58
2022/09/08 11:54:41;;;;;;;;;;;;;;;20.43;73.61;97691.41;5029774;28;19933;-65
2022/09/08 11:57:21;;;;;;;;;;;;;;;20.57;72.95;97683.56;5050301;28;19925;-61
2022/09/08 11:59:58;;;;;;;;;;;;;;;20.74;73.03;97687.88;5048973;28;19931;-61
2022/09/08 12:02:35;;;;;;;;;;;;;;;20.60;72.31;97685.88;5033035;28;19924;-62
2022/09/08 12:05:11;;;;;;;;;;;;;;;20.78;72.42;97679.50;5050322;28;19932;-58
2022/09/08 12:07:57;;;;;;;;;;;;;;;20.81;71.43;97676.50;5053064;28;20103;-58
2022/09/08 12:10:37;;;;;;;;;;;;;;;20.82;72.94;97670.16;5032367;28;19929;-59
2022/09/08 12:13:08;;;;;;;;;;;;;;;21.02;71.70;97663.44;5034241;28;19990;-59
2022/09/08 12:15:52;;;;;;;;;;;;;;;20.98;72.12;97662.09;5047657;28;20031;-59
2022/09/08 12:18:38;;;;;;;;;;;;;;;20.93;72.43;97651.09;5045403;28;20008;-58
2022/09/08 12:21:23;;;;;;;;;;;;;;;20.92;72.80;97649.44;5030966;28;20039;-58
2022/09/08 12:23:56;;;;;;;;;;;;;;;20.83;72.82;97640.56;5046854;28;19924;-59
2022/09/08 12:26:33;;;;;;;;;;;;;;;21.14;73.06;97651.34;5045862;28;19932;-59
2022/09/08 12:29:22;;;;;;;;;;;;;;;21.13;72.15;97644.34;5043050;28;19972;-54
2022/09/08 12:32:03;;;;;;;;;;;;;;;20.94;72.69;97652.75;5036039;28;19925;-55
2022/09/08 12:34:49;;;;;;;;;;;;;;;21.26;72.40;97649.97;5042470;28;20020;-55
2022/09/08 12:37:21;;;;;;;;;;;;;;;21.07;72.31;97647.72;4942323;28;20007;-67
2022/09/08 12:40:08;;;;;;;;;;;;;;;21.24;71.78;97635.91;4962375;28;19926;-51
2022/09/08 12:42:57;;;;;;;;;;;;;;;21.08;71.78;97630.66;4948141;28;19926;-66
2022/09/08 12:45:38;;;;;;;;;;;;;;;21.49;72.04;97637.47;4963885;28;19974;-54
2022/09/08 12:48:11;;;;;;;;;;;;;;;21.58;71.48;97641.78;4959746;28;19934;-59
2022/09/08 12:50:46;;;;;;;;;;;;;;;21.50;71.84;97634.63;4957180;28;19965;-52
2022/09/08 12:53:29;;;;;;;;;;;;;;;21.35;71.76;97630.16;4962635;28;20361;-55
2022/09/08 12:56:03;;;;;;;;;;;;;;;21.25;71.41;97627.72;4963384;28;19926;-52
2022/09/08 12:58:33;;;;;;;;;;;;;;;21.19;73.09;97627.59;4957713;28;20053;-52
2022/09/08 13:01:07;;;;;;;;;;;;;;;21.43;71.50;97619.44;4958497;28;19932;-51
2022/09/08 13:03:37;;;;;;;;;;;;;;;21.31;72.80;97620.81;4941687;28;19958;-52
2022/09/08 13:06:19;;;;;;;;;;;;;;;21.43;71.49;97624.81;4963734;28;19926;-54
2022/09/08 13:08:56;;;;;;;;;;;;;;;21.55;70.67;97612.69;4963111;28;20037;-56
2022/09/08 13:11:33;;;;;;;;;;;;;;;21.78;70.18;97601.00;4963301;28;20385;-57
2022/09/08 13:14:02;;;;;;;;;;;;;;;22.07;71.54;97602.94;4979627;28;20049;-60
2022/09/08 13:16:35;;;;;;;;;;;;;;;22.06;71.16;97604.78;5026913;28;19964;-52
2022/09/08 13:19:10;;;;;;;;;;;;;;;21.89;70.62;97592.56;5023096;28;19983;-55
2022/09/08 13:22:04;;;;;;;;;;;;;;;21.69;72.34;97594.03;5023392;28;19925;-52
2022/09/08 13:24:40;;;;;;;;;;;;;;;21.54;71.50;97586.94;5030163;28;19925;-49
2022/09/08 13:27:13;;;;;;;;;;;;;;;21.61;72.47;97587.88;5024480;28;19994;-50
2022/09/08 13:29:53;;;;;;;;;;;;;;;21.48;72.68;97595.66;5022474;28;20380;-66
2022/09/08 13:32:29;;;;;;;;;;;;;;;21.40;72.46;97593.84;5022571;28;20016;-55
2022/09/08 13:35:08;;;;;;;;;;;;;;;21.31;71.17;97578.00;5022873;28;19932;-65
2022/09/08 13:37:46;;;;;;;;;;;;;;;21.27;71.19;97580.22;5016819;28;20016;-54
2022/09/08 13:40:19;;;;;;;;;;;;;;;21.36;70.99;97578.34;5013842;28;19926;-53
2022/09/08 13:42:56;;;;;;;;;;;;;;;21.38;71.23;97578.97;5021908;28;19992;-53
2022/09/08 13:45:31;;;;;;;;;;;;;;;21.25;71.62;97584.09;5021452;28;19925;-56
2022/09/08 13:48:09;;;;;;;;;;;;;;;21.29;70.91;97583.53;5024358;28;19971;-54
2022/09/08 13:50:53;;;;;;;;;;;;;;;21.16;71.55;97579.78;5021317;28;20413;-50
2022/09/08 13:53:31;;;;;;;;;;;;;;;21.38;70.77;97568.28;5019556;28;20328;-53
2022/09/08 13:56:07;;;;;;;;;;;;;;;21.49;70.79;97551.81;5025433;28;19925;-50
2022/09/08 13:58:36;;;;;;;;;;;;;;;21.74;69.97;97556.84;5024936;28;19932;-62
2022/09/08 14:01:26;;;;;;;;;;;;;;;21.98;70.26;97555.81;5036330;28;19929;-60
2022/09/08 14:04:00;;;;;;;;;;;;;;;22.09;70.01;97550.84;5025678;28;19929;-65
2022/09/08 14:06:32;;;;;;;;;;;;;;;21.84;70.25;97548.56;5029923;28;20060;-51
2022/09/08 14:09:08;;;;;;;;;;;;;;;21.80;71.46;97547.25;5024016;28;19975;-50
2022/09/08 14:11:45;;;;;;;;;;;;;;;21.91;70.41;97538.81;5042088;28;19924;-53
2022/09/08 14:14:24;;;;;;;;;;;;;;;21.80;70.61;97532.00;5023858;28;20349;-58
2022/09/08 14:16:53;;;;;;;;;;;;;;;21.78;71.17;97541.25;5024536;28;20047;-52
2022/09/08 14:19:40;;;;;;;;;;;;;;;21.67;71.37;97528.28;5026871;28;19940;-53
2022/09/08 14:22:15;;;;;;;;;;;;;;;21.68;71.03;97524.59;5027472;28;20407;-57
2022/09/08 14:24:54;;;;;;;;;;;;;;;21.78;71.07;97517.97;5025290;28;20025;-51
2022/09/08 14:27:32;;;;;;;;;;;;;;;21.61;72.10;97524.44;5025862;28;20328;-59
2022/09/08 14:30:03;;;;;;;;;;;;;;;21.80;73.34;97517.81;5022529;28;20398;-53
2022/09/08 14:32:39;;;;;;;;;;;;;;;21.79;72.01;97513.44;5028362;28;19933;-53
2022/09/08 14:35:21;;;;;;;;;;;;;;;21.77;72.81;97515.47;5029041;28;19929;-50
2022/09/08 14:37:55;;;;;;;;;;;;;;;21.83;71.90;97507.56;5032862;28;20016;-51
2022/09/08 14:40:24;;;;;;;;;;;;;;;21.78;72.35;97507.28;5022510;28;19933;-50
2022/09/08 14:43:02;;;;;;;;;;;;;;;21.88;72.08;97494.44;5024999;28;19932;-50
2022/09/08 14:45:34;;;;;;;;;;;;;;;21.78;72.46;97496.56;5023408;28;20377;-49
2022/09/08 14:48:12;;;;;;;;;;;;;;;21.65;73.24;97501.69;5023057;28;19975;-51
2022/09/08 14:50:58;;;;;;;;;;;;;;;21.63;73.50;97493.00;5029021;28;19925;-50
2022/09/08 14:53:41;;;;;;;;;;;;;;;21.36;73.77;97495.38;5037736;28;19928;-51
2022/09/08 14:56:10;;;;;;;;;;;;;;;21.45;73.45;97489.78;5054970;28;19925;-53
2022/09/08 14:58:47;;;;;;;;;;;;;;;21.45;73.67;97488.94;5040845;28;19924;-50
2022/09/08 15:01:23;;;;;;;;;;;;;;;21.33;73.87;97487.69;5042989;28;20295;-51
2022/09/08 15:03:55;;;;;;;;;;;;;;;21.22;74.65;97483.59;5038204;28;19924;-50
2022/09/08 15:06:36;;;;;;;;;;;;;;;21.33;75.42;97479.66;5057879;28;19932;-51
2022/09/08 15:09:30;;;;;;;;;;;;;;;21.36;75.60;97480.13;5053863;28;19924;-67
2022/09/08 15:11:58;;;;;;;;;;;;;;;21.15;75.91;97469.28;5047382;28;19924;-51
2022/09/08 15:14:30;;;;;;;;;;;;;;;21.09;75.61;97467.28;5041159;28;19964;-66
2022/09/08 15:17:16;;;;;;;;;;;;;;;20.95;76.32;97469.91;5060861;28;19931;-51
2022/09/08 15:19:48;;;;;;;;;;;;;;;20.77;76.20;97467.44;5053364;28;19929;-53
2022/09/08 15:22:30;;;;;;;;;;;;;;;20.82;76.60;97464.25;5051243;28;19932;-55
2022/09/08 15:24:58;;;;;;;;;;;;;;;20.73;77.69;97453.59;5026604;28;20008;-52
2022/09/08 15:27:28;;;;;;;;;;;;;;;20.66;77.23;97457.13;5048821;28;19936;-53
2022/09/08 15:30:03;;;;;;;;;;;;;;;20.71;76.96;97452.13;5050316;28;19925;-50
2022/09/08 15:32:48;;;;;;;;;;;;;;;20.67;77.69;97453.47;5041956;28;19931;-51
2022/09/08 15:35:21;;;;;;;;;;;;;;;20.49;78.32;97459.06;5016914;28;20032;-50
2022/09/08 15:37:53;;;;;;;;;;;;;;;20.44;77.81;97460.59;5014326;28;19940;-52
2022/09/08 15:40:23;;;;;;;;;;;;;;;20.60;78.07;97456.00;5033907;28;19988;-53
2022/09/08 15:42:58;;;;;;;;;;;;;;;20.52;77.84;97456.03;5051094;28;19948;-54
2022/09/08 15:45:40;;;;;;;;;;;;;;;20.48;78.65;97460.06;5027881;28;19925;-66
2022/09/08 15:48:14;;;;;;;;;;;;;;;20.35;78.33;97461.63;5054790;28;19940;-50
2022/09/08 15:50:57;;;;;;;;;;;;;;;20.30;77.94;97462.16;5051034;28;19931;-50
2022/09/08 15:53:42;;;;;;;;;;;;;;;20.29;78.83;97455.16;5049219;28;20392;-52
2022/09/08 15:56:26;;;;;;;;;;;;;;;20.26;78.46;97447.47;5053121;28;19924;-66
2022/09/08 15:59:09;;;;;;;;;;;;;;;20.23;79.42;97452.34;5038979;28;19924;-51
2022/09/08 16:01:49;;;;;;;;;;;;;;;20.16;79.75;97448.66;5053246;28;19940;-49
2022/09/08 16:04:21;;;;;;;;;;;;;;;20.12;80.25;97456.16;5054345;28;19925;-50
2022/09/08 16:06:51;;;;;;;;;;;;;;;20.09;80.83;97459.19;5047099;28;19957;-66
2022/09/08 16:09:19;;;;;;;;;;;;;;;19.91;83.76;97471.94;5053731;28;19929;-49
2022/09/08 16:11:51;;;;;;;;;;;;;;;19.84;85.66;97483.44;5057191;28;19939;-54
2022/09/08 16:14:22;;;;;;;;;;;;;;;19.60;88.17;97486.97;5051774;28;20518;-66
2022/09/08 16:16:54;;;;;;;;;;;;;;;19.70;88.44;97482.28;5048530;28;20039;-53
2022/09/08 16:19:22;;;;;;;;;;;;;;;19.49;88.45;97479.28;5050624;28;20471;-50
2022/09/08 16:22:14;;;;;;;;;;;;;;;19.35;90.70;97463.91;5047554;28;19932;-60
2022/09/08 16:24:53;;;;;;;;;;;;;;;19.40;90.20;97472.28;5018621;28;19932;-50
2022/09/08 16:27:30;;;;;;;;;;;;;;;19.23;91.31;97475.09;5052364;28;19925;-49
2022/09/08 16:30:01;;;;;;;;;;;;;;;19.26;92.62;97474.75;5044138;28;19925;-49
2022/09/08 16:32:50;;;;;;;;;;;;;;;19.02;99.60;97464.88;5030676;28;20357;-65
2022/09/08 16:35:27;;;;;;;;;;;;;;;18.72;100.00;97449.50;5052443;28;19928;-52
2022/09/08 16:37:55;;;;;;;;;;;;;;;18.70;100.00;97438.19;5054315;28;19935;-66
2022/09/08 16:40:24;;;;;;;;;;;;;;;18.52;100.00;97433.91;5033550;28;19951;-57
2022/09/08 16:42:56;;;;;;;;;;;;;;;18.55;100.00;97434.44;5048572;28;19929;-53
